Time;durP1;ratioP1;P1;durP2;ratioP2;P2;SDS_P1;SDS_P2;PMS_P1;PMS_P2;Temp;Humidity;BMP_temperature;BMP_pressure;BME280_temperature;BME280_humidity;BME280_pressure;Samples;Min_cycle;Max_cycle;Signal;HPM_P1;HPM_P2
2021/12/18 00:00:09;;;;;;;6.18;3.35;;;;;;;1.78;83.15;101645.31;4419950;32;20471;-70
2021/12/18 00:02:41;;;;;;;7.68;3.35;;;;;;;1.79;83.09;101640.16;4419942;32;20107;-70
2021/12/18 00:05:09;;;;;;;8.57;3.45;;;;;;;1.78;83.20;101638.41;4419924;32;20561;-70
2021/12/18 00:07:37;;;;;;;8.50;3.25;;;;;;;1.84;83.02;101637.81;4419785;32;20461;-70
2021/12/18 00:10:05;;;;;;;6.37;3.05;;;;;;;1.87;82.80;101636.22;4419995;32;20160;-70
2021/12/18 00:12:33;;;;;;;6.10;3.10;;;;;;;1.85;82.92;101637.84;4419794;32;20522;-70
2021/12/18 00:15:00;;;;;;;7.82;3.42;;;;;;;1.77;83.45;101638.34;4419754;32;20097;-70
2021/12/18 00:17:27;;;;;;;12.65;4.72;;;;;;;1.91;82.94;101634.63;4419617;32;20229;-70
2021/12/18 00:19:54;;;;;;;6.87;3.30;;;;;;;1.85;83.30;101632.66;4419682;32;20129;-70
2021/12/18 00:22:21;;;;;;;9.63;3.45;;;;;;;1.85;83.32;101637.84;4419804;32;20093;-70
2021/12/18 00:24:48;;;;;;;4.62;3.42;;;;;;;1.85;83.56;101637.84;4421168;32;20085;-70
2021/12/18 00:27:19;;;;;;;12.35;3.65;;;;;;;1.85;83.52;101639.56;4421975;32;20124;-69
2021/12/18 00:29:46;;;;;;;13.55;3.87;;;;;;;1.88;83.37;101647.50;4422277;32;20456;-70
2021/12/18 00:32:16;;;;;;;14.73;4.78;;;;;;;1.83;83.58;101649.88;4422028;32;20073;-70
2021/12/18 00:34:43;;;;;;;8.02;3.22;;;;;;;1.81;83.78;101646.34;4422135;32;20575;-70
2021/12/18 00:37:10;;;;;;;7.40;4.05;;;;;;;1.82;83.79;101650.72;4422251;32;20180;-70
2021/12/18 00:39:45;;;;;;;5.90;3.20;;;;;;;1.82;84.00;101655.91;4422022;32;20128;-70
2021/12/18 00:42:37;;;;;;;7.35;3.50;;;;;;;1.80;84.25;101654.97;4421860;32;20117;-70
2021/12/18 00:45:08;;;;;;;7.62;3.65;;;;;;;1.74;84.73;101654.69;4422011;32;20139;-70
2021/12/18 00:47:35;;;;;;;9.32;4.10;;;;;;;1.63;84.94;101655.94;4422013;32;20090;-70
2021/12/18 00:50:06;;;;;;;8.27;4.03;;;;;;;1.61;85.24;101650.66;4421917;32;20141;-70
2021/12/18 00:52:33;;;;;;;11.93;4.28;;;;;;;1.57;85.33;101648.72;4421894;32;20425;-70
2021/12/18 00:55:02;;;;;;;6.22;3.78;;;;;;;1.63;85.25;101645.53;4421965;32;20172;-70
2021/12/18 00:57:29;;;;;;;11.10;4.03;;;;;;;1.64;85.40;101649.91;4421799;32;20155;-70
2021/12/18 01:00:01;;;;;;;9.20;4.10;;;;;;;1.57;85.86;101653.94;4421850;32;20098;-70
2021/12/18 01:02:31;;;;;;;6.72;4.35;;;;;;;1.59;85.91;101652.31;4421911;32;20447;-70
2021/12/18 01:04:58;;;;;;;11.07;4.07;;;;;;;1.42;86.69;101664.53;4421664;32;20136;-70
2021/12/18 01:07:26;;;;;;;5.40;2.35;;;;;;;1.48;86.42;101657.81;4421650;32;20125;-70
2021/12/18 01:12:46;;;;;;;6.90;4.07;;;;;;;1.50;86.85;101675.25;4399379;32;20104;-70
2021/12/18 01:15:36;;;;;;;6.82;3.17;;;;;;;1.35;87.57;101671.97;4421785;32;20081;-70
2021/12/18 01:23:46;;;;;;;11.73;4.57;;;;;;;1.38;87.86;101674.72;4365684;32;20082;-70
2021/12/18 01:26:14;;;;;;;11.00;4.57;;;;;;;1.25;88.57;101682.75;4421729;32;20144;-70
2021/12/18 01:28:41;;;;;;;8.82;4.10;;;;;;;1.15;88.95;101678.81;4421232;32;20097;-70
2021/12/18 01:31:09;;;;;;;7.20;3.80;;;;;;;1.22;88.82;101678.28;4421559;32;20101;-70
2021/12/18 01:33:36;;;;;;;9.43;3.70;;;;;;;1.31;88.69;101685.63;4421472;32;20140;-70
2021/12/18 01:36:04;;;;;;;11.55;4.20;;;;;;;1.29;88.82;101688.13;4420937;32;20176;-70
2021/12/18 01:38:34;;;;;;;10.88;3.95;;;;;;;1.21;89.05;101688.63;4421399;32;20456;-70
2021/12/18 01:41:02;;;;;;;6.53;3.50;;;;;;;1.12;89.77;101689.94;4421591;32;20673;-70
2021/12/18 01:54:30;;;;;;;17.37;4.70;;;;;;;1.41;88.07;101700.78;4421354;32;20731;-70
2021/12/18 01:56:59;;;;;;;6.72;4.03;;;;;;;1.16;89.10;101716.94;4421394;32;20165;-70
2021/12/18 01:59:45;;;;;;;8.60;4.35;;;;;;;0.93;90.17;101713.25;4421280;32;20590;-70
2021/12/18 02:02:12;;;;;;;6.78;3.53;;;;;;;0.91;90.79;101710.56;4421237;32;20433;-70
2021/12/18 02:04:40;;;;;;;7.40;4.55;;;;;;;0.91;90.95;101712.28;4421141;32;20523;-70
2021/12/18 02:07:07;;;;;;;8.05;4.00;;;;;;;1.03;90.78;101707.69;4421139;32;20093;-70
2021/12/18 02:09:55;;;;;;;13.20;4.07;;;;;;;1.07;90.55;101712.22;4421186;32;20106;-70
2021/12/18 02:12:28;;;;;;;;;;;;;;;1.21;89.91;101718.06;4421677;32;20180;-70
2021/12/18 02:20:41;;;;;;;5.45;3.45;;;;;;;1.29;89.62;101716.69;4421199;32;20086;-70
2021/12/18 02:23:06;;;;;;;6.65;3.35;;;;;;;1.27;89.76;101720.91;4421171;32;20110;-70
2021/12/18 02:25:36;;;;;;;8.25;3.72;;;;;;;1.49;88.45;101712.44;4420948;32;20511;-70
2021/12/18 02:28:11;;;;;;;11.15;4.25;;;;;;;1.56;87.95;101724.00;4420848;32;20197;-70
2021/12/18 02:30:39;;;;;;;8.68;3.30;;;;;;;1.63;87.49;101721.75;4420946;32;20098;-70
2021/12/18 02:33:06;;;;;;;5.97;3.72;;;;;;;1.66;87.33;101715.78;4421032;32;20093;-70
2021/12/18 02:35:42;;;;;;;9.85;3.08;;;;;;;1.71;87.11;101722.09;4420901;32;20348;-70
2021/12/18 02:38:30;;;;;;;8.90;3.42;;;;;;;1.69;87.06;101715.94;4420997;32;20085;-70
2021/12/18 02:43:33;;;;;;;11.75;3.67;;;;;;;1.79;86.56;101717.25;4420812;32;20494;-70
2021/12/18 02:46:06;;;;;;;8.70;3.42;;;;;;;1.94;85.72;101717.91;4420781;32;20089;-70
2021/12/18 02:48:41;;;;;;;10.68;3.40;;;;;;;1.92;85.75;101736.06;4419723;32;20085;-70
2021/12/18 02:51:11;;;;;;;11.27;3.58;;;;;;;1.86;86.12;101738.37;4420693;32;20742;-70
2021/12/18 02:53:43;;;;;;;11.00;4.55;;;;;;;1.77;86.46;101742.28;4420733;32;20196;-70
2021/12/18 02:56:11;;;;;;;8.38;3.17;;;;;;;1.72;86.58;101747.25;4420894;32;20606;-70
2021/12/18 02:58:40;;;;;;;9.38;3.55;;;;;;;1.72;86.58;101742.06;4420705;32;20497;-70
2021/12/18 03:01:09;;;;;;;11.18;3.87;;;;;;;1.63;86.97;101737.34;4420636;32;20132;-70
2021/12/18 03:03:41;;;;;;;11.70;3.87;;;;;;;1.60;87.04;101736.31;4420739;32;20216;-70
2021/12/18 03:25:28;;;;;;;12.75;4.65;;;;;;;1.42;87.54;101737.25;4420408;32;20127;-70
2021/12/18 03:28:03;;;;;;;12.07;4.00;;;;;;;1.37;87.83;101751.69;4420375;32;20397;-70
2021/12/18 03:30:32;;;;;;;6.12;3.40;;;;;;;1.39;87.73;101757.88;4420448;32;20791;-70
2021/12/18 03:33:02;;;;;;;12.50;4.07;;;;;;;1.41;87.59;101765.72;4420307;32;20121;-70
2021/12/18 03:35:29;;;;;;;10.35;4.40;;;;;;;1.45;87.45;101775.47;4420263;32;20523;-70
2021/12/18 03:37:56;;;;;;;6.72;2.95;;;;;;;1.46;87.29;101768.56;4420405;32;20080;-70
2021/12/18 03:40:25;;;;;;;7.85;3.62;;;;;;;1.49;87.20;101771.31;4420291;32;20448;-70
2021/12/18 03:42:53;;;;;;;8.25;3.28;;;;;;;1.60;86.48;101772.69;4420070;32;20185;-70
2021/12/18 03:45:21;;;;;;;7.75;3.28;;;;;;;1.51;86.65;101778.31;4420184;32;20093;-70
2021/12/18 03:47:50;;;;;;;5.53;3.05;;;;;;;1.53;86.70;101781.91;4420144;32;20089;-70
2021/12/18 03:50:18;;;;;;;7.97;3.83;;;;;;;1.53;86.69;101781.00;4420105;32;20507;-70
2021/12/18 03:52:45;;;;;;;17.35;3.70;;;;;;;1.51;86.63;101775.72;4420024;32;20177;-70
2021/12/18 03:55:14;;;;;;;8.23;3.15;;;;;;;1.50;86.58;101762.69;4420374;32;20153;-70
2021/12/18 03:57:41;;;;;;;7.20;2.60;;;;;;;1.47;86.68;101763.41;4420042;32;20104;-70
2021/12/18 04:00:14;;;;;;;6.82;4.03;;;;;;;1.55;86.39;101774.16;4421703;32;20119;-70
2021/12/18 04:02:41;;;;;;;6.47;3.67;;;;;;;1.57;86.24;101780.34;4422436;32;20093;-70
2021/12/18 04:05:10;;;;;;;7.62;3.28;;;;;;;1.44;86.63;101781.44;4422180;32;20127;-70
2021/12/18 04:07:42;;;;;;;9.52;3.97;;;;;;;1.44;86.81;101790.13;4422212;32;20108;-70
2021/12/18 04:10:12;;;;;;;5.95;3.17;;;;;;;1.50;86.50;101784.34;4422358;32;20078;-70
2021/12/18 04:12:39;;;;;;;8.57;4.00;;;;;;;1.42;86.82;101781.41;4422236;32;20166;-70
2021/12/18 04:15:10;;;;;;;6.70;2.97;;;;;;;1.43;86.67;101774.50;4422191;32;20101;-70
2021/12/18 04:17:37;;;;;;;12.70;3.20;;;;;;;1.47;86.47;101745.25;4422294;32;20128;-70
2021/12/18 04:20:05;;;;;;;7.70;4.32;;;;;;;1.51;86.20;101749.75;4422211;32;20128;-70
2021/12/18 04:22:32;;;;;;;8.65;3.83;;;;;;;1.51;86.24;101748.87;4422141;32;20674;-70
2021/12/18 04:25:00;;;;;;;6.75;3.10;;;;;;;1.47;86.39;101744.34;4422180;32;20262;-70
2021/12/18 04:27:28;;;;;;;10.30;3.90;;;;;;;1.35;87.08;101757.66;4421860;32;20115;-70
2021/12/18 04:29:55;;;;;;;9.40;3.55;;;;;;;1.31;87.08;101748.84;4422037;32;20746;-70
2021/12/18 04:32:22;;;;;;;5.82;3.12;;;;;;;1.26;87.38;101757.22;4422098;32;20471;-70
2021/12/18 04:34:50;;;;;;;7.12;3.72;;;;;;;1.35;87.05;101776.72;4422296;32;20114;-70
2021/12/18 04:37:17;;;;;;;12.18;4.15;;;;;;;1.39;86.74;101776.03;4422243;32;20681;-70
2021/12/18 04:39:44;;;;;;;12.93;3.95;;;;;;;1.37;86.76;101769.88;4422171;32;20557;-70
2021/12/18 04:42:11;;;;;;;12.73;4.20;;;;;;;1.36;86.75;101775.00;4422176;32;20102;-70
2021/12/18 04:44:38;;;;;;;7.32;3.67;;;;;;;1.34;86.72;101780.16;4407860;32;20100;-70
2021/12/18 04:47:06;;;;;;;11.95;3.47;;;;;;;1.31;86.89;101787.78;4421944;32;20152;-70
2021/12/18 04:49:33;;;;;;;7.60;4.20;;;;;;;1.33;86.72;101793.03;4421838;32;20506;-70
2021/12/18 04:52:02;;;;;;;7.07;4.10;;;;;;;1.28;86.85;101804.94;4421988;32;20094;-70
2021/12/18 04:54:29;;;;;;;6.15;3.42;;;;;;;1.22;87.03;101802.91;4421926;32;20164;-70
2021/12/18 04:56:57;;;;;;;8.98;3.90;;;;;;;1.18;87.18;101814.84;4421716;32;20086;-70
2021/12/18 04:59:24;;;;;;;8.50;3.97;;;;;;;1.19;87.13;101829.59;4421826;32;20443;-70
2021/12/18 05:01:52;;;;;;;10.15;4.37;;;;;;;1.17;87.23;101832.97;4421731;32;20437;-70
2021/12/18 05:04:20;;;;;;;9.88;3.75;;;;;;;1.16;87.18;101823.37;4421667;32;20183;-70
2021/12/18 05:06:50;;;;;;;8.10;3.80;;;;;;;1.23;86.85;101827.16;4421823;32;20116;-70
2021/12/18 05:09:18;;;;;;;13.88;3.60;;;;;;;1.19;86.94;101828.72;4421871;32;20472;-70
2021/12/18 05:11:46;;;;;;;11.00;3.47;;;;;;;1.17;86.90;101830.37;4420898;32;20124;-70
2021/12/18 05:14:14;;;;;;;6.03;2.97;;;;;;;1.14;86.91;101830.22;4421833;32;20101;-70
2021/12/18 05:16:42;;;;;;;7.80;3.70;;;;;;;1.16;86.79;101837.22;4421899;32;20109;-70
2021/12/18 05:19:09;;;;;;;10.70;2.92;;;;;;;1.18;86.63;101840.81;4421812;32;20086;-70
2021/12/18 05:21:36;;;;;;;5.87;3.40;;;;;;;1.18;86.49;101846.00;4421561;32;20395;-70
2021/12/18 05:24:04;;;;;;;7.57;3.50;;;;;;;1.17;86.43;101841.62;4421608;32;20135;-70
2021/12/18 05:26:31;;;;;;;6.18;3.87;;;;;;;1.10;86.76;101851.66;4421676;32;20099;-70
2021/12/18 05:28:58;;;;;;;6.90;3.40;;;;;;;1.12;86.56;101848.28;4421790;32;20085;-70
2021/12/18 05:31:25;;;;;;;6.80;3.47;;;;;;;1.10;86.53;101849.94;4421554;32;20128;-70
2021/12/18 05:33:57;;;;;;;5.70;3.17;;;;;;;1.11;86.41;101848.22;4421561;32;20172;-70
2021/12/18 05:36:50;;;;;;;12.55;3.97;;;;;;;1.12;86.26;101852.59;4421553;32;20144;-70
2021/12/18 05:39:17;;;;;;;7.68;3.80;;;;;;;1.09;86.40;101855.03;4421608;32;20117;-70
2021/12/18 05:41:44;;;;;;;5.60;3.47;;;;;;;1.05;86.47;101850.50;4421496;32;20185;-70
2021/12/18 05:44:11;;;;;;;13.77;3.55;;;;;;;0.97;86.80;101857.03;4421556;32;20191;-70
2021/12/18 05:46:39;;;;;;;7.97;3.92;;;;;;;0.98;86.66;101845.81;4421495;32;20086;-70
2021/12/18 05:49:06;;;;;;;5.53;3.00;;;;;;;0.95;86.77;101842.28;4421416;32;20085;-70
2021/12/18 05:51:33;;;;;;;6.00;3.15;;;;;;;0.92;86.96;101854.22;4421469;32;20113;-70
2021/12/18 05:54:00;;;;;;;13.02;3.45;;;;;;;0.97;86.69;101851.84;4421483;32;20101;-70
2021/12/18 05:56:28;;;;;;;6.00;2.75;;;;;;;0.93;86.75;101849.09;4421432;32;20160;-70
2021/12/18 05:58:56;;;;;;;9.20;3.65;;;;;;;0.93;86.71;101859.47;4421442;32;20449;-70
2021/12/18 06:01:23;;;;;;;7.43;2.97;;;;;;;0.93;86.68;101863.75;4421406;32;20455;-70
2021/12/18 06:03:51;;;;;;;12.27;3.78;;;;;;;0.93;86.71;101863.75;4421465;32;20160;-70
2021/12/18 06:06:23;;;;;;;4.93;2.25;;;;;;;0.91;86.64;101868.84;4421660;32;20085;-70
2021/12/18 06:08:51;;;;;;;12.07;4.25;;;;;;;0.88;86.88;101866.12;4421648;32;20122;-70
2021/12/18 06:11:21;;;;;;;6.57;3.83;;;;;;;0.87;86.96;101866.03;4421388;32;20497;-70
2021/12/18 06:13:50;;;;;;;10.43;4.20;;;;;;;0.86;86.96;101859.97;4421285;32;20527;-70
2021/12/18 06:16:19;;;;;;;6.28;2.90;;;;;;;0.86;86.84;101869.47;4421208;32;20159;-70
2021/12/18 06:18:50;;;;;;;11.60;3.87;;;;;;;0.85;86.84;101891.94;4417236;32;122753;-70
2021/12/18 06:21:20;;;;;;;10.27;3.67;;;;;;;0.84;86.83;101884.94;4421097;32;20548;-70
2021/12/18 06:23:49;;;;;;;8.40;3.47;;;;;;;0.82;86.83;101891.75;4421065;32;20105;-70
2021/12/18 06:26:18;;;;;;;7.95;4.00;;;;;;;0.79;87.01;101895.91;4421136;32;20499;-70
2021/12/18 06:28:46;;;;;;;11.63;3.58;;;;;;;0.82;86.77;101903.84;4420823;32;20204;-70
2021/12/18 06:31:30;;;;;;;10.35;4.30;;;;;;;0.78;86.92;101907.97;4420960;32;20139;-70
2021/12/18 06:33:58;;;;;;;10.20;4.93;;;;;;;0.81;86.60;101897.75;4420931;32;20126;-70
2021/12/18 06:36:26;;;;;;;7.80;4.10;;;;;;;0.73;87.02;101899.06;4420992;32;20410;-70
2021/12/18 06:38:53;;;;;;;7.85;4.05;;;;;;;0.78;86.82;101902.78;4406525;32;20479;-70
2021/12/18 06:41:20;;;;;;;5.90;2.95;;;;;;;0.81;86.64;101899.44;4420772;32;20124;-70
2021/12/18 06:43:47;;;;;;;15.32;4.62;;;;;;;0.81;86.60;101900.34;4420828;32;20127;-70
2021/12/18 06:46:14;;;;;;;11.93;4.37;;;;;;;0.80;86.58;101908.94;4420836;32;20429;-70
2021/12/18 06:48:42;;;;;;;6.72;3.87;;;;;;;0.78;86.80;101926.16;4420869;32;20900;-70
2021/12/18 06:51:15;;;;;;;12.15;4.82;;;;;;;0.81;86.74;101921.09;4420722;32;20456;-70
2021/12/18 06:53:42;;;;;;;12.32;4.07;;;;;;;0.84;86.61;101931.63;4420731;32;20145;-70
2021/12/18 06:56:09;;;;;;;4.37;2.87;;;;;;;0.89;86.50;101935.37;4420853;32;20116;-70
2021/12/18 06:58:37;;;;;;;10.80;4.82;;;;;;;0.94;86.19;101933.91;4420723;32;20098;-70
2021/12/18 07:01:04;;;;;;;16.70;4.50;;;;;;;0.95;86.23;101927.00;4420508;32;20181;-70
2021/12/18 07:03:33;;;;;;;9.27;3.78;;;;;;;0.98;86.07;101923.69;4420750;32;20528;-70
2021/12/18 07:06:00;;;;;;;5.18;3.37;;;;;;;1.02;85.93;101921.31;4406474;32;20503;-70
2021/12/18 07:08:28;;;;;;;4.43;3.03;;;;;;;1.01;86.00;101914.34;4420755;32;20098;-70
2021/12/18 07:11:00;;;;;;;11.18;4.75;;;;;;;1.07;85.83;101916.38;4420544;32;20101;-70
2021/12/18 07:13:29;;;;;;;8.52;4.10;;;;;;;1.07;85.88;101918.97;4420642;32;20168;-70
2021/12/18 07:15:56;;;;;;;9.45;4.05;;;;;;;1.11;85.75;101910.53;4420626;32;20132;-70
2021/12/18 07:18:23;;;;;;;17.20;5.45;;;;;;;1.11;85.82;101910.53;4420461;32;20090;-70
2021/12/18 07:20:52;;;;;;;10.80;4.90;;;;;;;1.13;85.75;101908.88;4420362;32;20102;-70
2021/12/18 07:23:19;;;;;;;11.02;4.68;;;;;;;1.18;85.65;101903.12;4420371;32;20130;-70
2021/12/18 07:25:46;;;;;;;6.28;3.58;;;;;;;1.22;85.65;101898.97;4420461;32;20165;-70
2021/12/18 07:28:14;;;;;;;12.50;4.37;;;;;;;1.28;85.39;101901.88;4420245;32;20094;-70
2021/12/18 07:30:47;;;;;;;10.20;2.83;;;;;;;1.35;85.19;101908.28;4420476;32;20108;-70
2021/12/18 07:33:15;;;;;;;12.13;4.10;;;;;;;1.44;84.92;101904.41;4419762;32;20551;-70
2021/12/18 07:35:44;;;;;;;14.20;4.90;;;;;;;1.48;84.79;101907.16;4420197;32;20109;-70
2021/12/18 07:38:11;;;;;;;6.87;3.58;;;;;;;1.48;85.02;101915.84;4420192;32;20101;-70
2021/12/18 07:40:39;;;;;;;12.07;3.35;;;;;;;1.55;84.75;101919.62;4420379;31;20090;-70
2021/12/18 07:43:06;;;;;;;7.78;3.58;;;;;;;1.59;84.42;101934.56;4420394;32;20819;-70
2021/12/18 07:45:34;;;;;;;7.45;3.70;;;;;;;1.64;84.42;101935.69;4420078;32;20097;-70
2021/12/18 07:48:02;;;;;;;10.70;3.22;;;;;;;1.66;84.23;101945.34;4420112;32;20136;-70
2021/12/18 07:50:30;;;;;;;11.55;4.32;;;;;;;1.74;84.09;101948.31;4419973;32;20094;-70
2021/12/18 07:52:58;;;;;;;15.05;3.80;;;;;;;1.77;83.89;101953.66;4420045;32;20448;-70
2021/12/18 07:55:25;;;;;;;6.70;3.72;;;;;;;1.84;83.46;101955.75;4419968;32;20408;-70
2021/12/18 07:57:54;;;;;;;4.45;2.03;;;;;;;1.86;83.51;101959.31;4420060;31;20094;-70
2021/12/18 08:00:22;;;;;;;11.20;3.90;;;;;;;1.89;83.16;101964.66;4420286;32;20093;-70
2021/12/18 08:02:49;;;;;;;7.62;4.15;;;;;;;2.00;82.66;101966.88;4420068;32;20101;-70
2021/12/18 08:05:16;;;;;;;9.40;4.07;;;;;;;2.07;82.25;101968.97;4420038;32;20085;-70
2021/12/18 08:07:44;;;;;;;17.23;6.10;;;;;;;2.06;82.14;101968.06;4419751;32;20123;-70
2021/12/18 08:10:11;;;;;;;22.77;7.40;;;;;;;2.11;82.16;101960.47;4419950;32;20102;-70
2021/12/18 08:12:38;;;;;;;27.77;8.57;;;;;;;2.17;81.92;101949.50;4420065;32;20102;-70
2021/12/18 08:15:07;;;;;;;10.40;5.32;;;;;;;2.25;81.76;101954.22;4420098;32;20144;-70
2021/12/18 08:17:35;;;;;;;28.58;9.95;;;;;;;2.30;81.19;101962.25;4420087;32;20892;-70
2021/12/18 08:20:04;;;;;;;18.20;6.12;;;;;;;2.32;80.83;101943.28;4419891;32;20098;-70
2021/12/18 08:22:32;;;;;;;14.90;5.55;;;;;;;2.36;80.87;101953.00;4419944;32;20098;-70
2021/12/18 08:25:00;;;;;;;34.10;8.45;;;;;;;2.40;80.20;101961.84;4420008;32;20194;-70
2021/12/18 08:27:30;;;;;;;32.28;9.65;;;;;;;2.45;80.08;101962.09;4419799;32;20090;-70
2021/12/18 08:29:57;;;;;;;38.53;10.18;;;;;;;2.50;79.57;101960.56;4419802;32;20144;-70
2021/12/18 08:32:24;;;;;;;20.15;5.45;;;;;;;2.55;79.30;101959.97;4419816;32;20168;-70
2021/12/18 08:34:52;;;;;;;30.00;9.00;;;;;;;2.59;79.08;101958.41;4419902;32;20089;-70
2021/12/18 08:37:20;;;;;;;29.60;10.55;;;;;;;2.61;78.94;101949.84;4419907;32;20124;-70
2021/12/18 08:39:48;;;;;;;17.30;5.82;;;;;;;2.70;78.39;101951.97;4419639;32;20161;-70
2021/12/18 08:42:16;;;;;;;15.90;6.97;;;;;;;2.77;78.40;101955.75;4419691;32;20097;-70
2021/12/18 08:44:43;;;;;;;7.57;4.35;;;;;;;2.85;78.03;101954.34;4420046;32;20177;-70
2021/12/18 08:47:11;;;;;;;9.68;4.47;;;;;;;2.90;77.84;101964.97;4422296;32;20147;-70
2021/12/18 08:49:38;;;;;;;17.40;5.78;;;;;;;2.95;77.18;101961.75;4422210;32;20093;-70
2021/12/18 08:52:05;;;;;;;7.97;3.92;;;;;;;3.02;77.17;101956.00;4422046;32;20105;-70
2021/12/18 08:54:35;;;;;;;8.98;3.87;;;;;;;3.13;76.64;101956.47;4421983;32;20445;-70
2021/12/18 08:57:08;;;;;;;13.27;3.97;;;;;;;3.14;76.12;101957.34;4421966;32;20074;-70
2021/12/18 08:59:38;;;;;;;17.67;6.97;;;;;;;3.23;75.86;101950.84;4421756;32;20165;-70
2021/12/18 09:02:08;;;;;;;8.18;3.70;;;;;;;3.28;75.54;101948.41;4421929;31;20151;-70
2021/12/18 09:04:36;;;;;;;8.57;4.12;;;;;;;3.25;75.07;101950.88;4421668;32;20076;-70
2021/12/18 09:07:04;;;;;;;11.57;5.93;;;;;;;3.41;74.92;101949.84;4421778;32;20162;-70
2021/12/18 09:09:36;;;;;;;11.38;4.68;;;;;;;3.46;74.04;101945.69;4421814;32;20128;-70
2021/12/18 09:12:04;;;;;;;5.78;2.92;;;;;;;3.49;73.44;101943.22;4421845;32;20121;-70
2021/12/18 09:14:31;;;;;;;11.10;3.72;;;;;;;3.54;73.37;101937.38;4421687;32;20089;-70
2021/12/18 09:16:59;;;;;;;7.37;3.90;;;;;;;3.57;72.89;101941.84;4421656;32;20162;-70
2021/12/18 09:19:26;;;;;;;4.78;3.20;;;;;;;3.64;72.47;101943.88;4421752;32;20404;-70
2021/12/18 09:21:55;;;;;;;6.43;3.10;;;;;;;3.64;72.46;101941.28;4421580;32;20460;-70
2021/12/18 09:24:22;;;;;;;6.65;2.70;;;;;;;3.72;72.36;101939.88;4421529;32;20077;-70
2021/12/18 09:26:51;;;;;;;13.02;3.67;;;;;;;3.74;71.83;101937.31;4421632;32;20138;-70
2021/12/18 09:29:19;;;;;;;6.22;3.42;;;;;;;3.77;71.82;101938.31;4421402;32;20153;-70
2021/12/18 09:31:46;;;;;;;11.93;3.90;;;;;;;3.88;71.23;101933.53;4421622;31;20105;-70
2021/12/18 09:34:14;;;;;;;7.85;3.10;;;;;;;3.96;71.07;101934.75;4421498;32;20081;-70
2021/12/18 09:36:41;;;;;;;8.75;3.42;;;;;;;3.94;70.37;101927.69;4421464;32;20085;-70
2021/12/18 09:39:08;;;;;;;12.07;4.20;;;;;;;4.02;70.09;101915.84;4421362;32;20097;-70
2021/12/18 09:41:36;;;;;;;8.75;3.75;;;;;;;4.15;69.68;101915.50;4421423;31;20113;-70
2021/12/18 09:44:04;;;;;;;8.27;3.60;;;;;;;4.18;69.67;101925.16;4421341;32;20163;-70
2021/12/18 09:46:31;;;;;;;12.00;3.40;;;;;;;4.30;68.43;101923.91;4421237;32;20125;-70
2021/12/18 09:49:00;;;;;;;8.23;2.87;;;;;;;4.35;68.25;101917.97;4421473;32;20400;-70
2021/12/18 09:51:27;;;;;;;6.37;3.17;;;;;;;4.35;67.88;101920.56;4421275;32;20461;-70
2021/12/18 09:53:56;;;;;;;8.60;3.62;;;;;;;4.51;67.71;101917.72;4421200;32;20119;-70
2021/12/18 09:56:26;;;;;;;6.20;3.20;;;;;;;4.61;67.30;101914.63;4420739;32;20185;-70
2021/12/18 09:58:53;;;;;;;10.45;4.12;;;;;;;4.53;66.56;101903.00;4421218;32;20756;-70
2021/12/18 10:01:21;;;;;;;4.60;2.17;;;;;;;4.71;66.51;101897.56;4421191;31;20097;-70
2021/12/18 10:03:52;;;;;;;11.68;3.92;;;;;;;4.70;65.15;101901.91;4421310;32;20156;-72
2021/12/18 10:06:46;;;;;;;5.80;3.45;;;;;;;4.59;65.48;101892.78;4421249;32;20499;-73
2021/12/18 10:09:20;;;;;;;18.85;3.53;;;;;;;4.65;65.58;101900.84;4413276;32;20144;-72
2021/12/18 10:11:50;;;;;;;6.22;3.47;;;;;;;4.66;65.71;101910.44;4421369;32;20157;-73
2021/12/18 10:14:30;;;;;;;2.78;2.37;;;;;;;4.65;65.10;101924.34;4421343;32;20080;-73
2021/12/18 10:16:57;;;;;;;10.32;4.12;;;;;;;4.69;64.90;101926.22;4421140;32;20078;-73
2021/12/18 10:19:28;;;;;;;4.47;3.15;;;;;;;4.94;64.60;101921.87;4420892;32;20119;-72
2021/12/18 10:22:06;;;;;;;4.20;3.28;;;;;;;5.59;63.21;101919.78;4421138;32;20447;-73
2021/12/18 10:24:36;;;;;;;5.03;3.22;;;;;;;6.30;60.71;101930.78;4421310;32;20512;-71
2021/12/18 10:27:26;;;;;;;7.37;3.00;;;;;;;6.93;57.96;101923.91;4420793;32;20119;-70
2021/12/18 10:30:07;;;;;;;6.25;3.00;;;;;;;7.24;56.86;101921.19;4420968;32;20446;-70
2021/12/18 10:32:34;;;;;;;6.47;3.60;;;;;;;7.79;56.03;101918.25;4421077;32;20160;-70
2021/12/18 10:35:01;;;;;;;6.12;2.97;;;;;;;8.21;53.43;101922.72;4420995;32;20115;-71
2021/12/18 10:37:31;;;;;;;6.93;2.85;;;;;;;8.64;53.46;101914.91;4421026;32;20124;-71
2021/12/18 10:40:03;;;;;;;7.25;3.42;;;;;;;8.63;51.39;101908.78;4420839;32;20112;-70
2021/12/18 10:42:30;;;;;;;9.02;3.60;;;;;;;8.32;52.72;101897.56;4420866;32;20194;-70
2021/12/18 10:44:57;;;;;;;10.63;3.15;;;;;;;9.12;50.76;101900.94;4421016;32;20365;-70
2021/12/18 10:47:27;;;;;;;7.37;3.10;;;;;;;9.01;50.25;101893.75;4420815;32;20123;-70
2021/12/18 10:49:56;;;;;;;7.80;3.33;;;;;;;8.67;51.13;101888.69;4420889;32;20090;-70
2021/12/18 10:52:39;;;;;;;6.78;2.92;;;;;;;8.91;50.31;101886.56;4420989;32;20121;-71
2021/12/18 10:55:07;;;;;;;3.37;2.53;;;;;;;8.75;50.19;101880.09;4420776;32;20090;-70
2021/12/18 10:57:37;;;;;;;4.45;2.80;;;;;;;9.13;50.73;101882.56;4420872;32;20457;-71
2021/12/18 11:00:05;;;;;;;5.80;3.28;;;;;;;9.92;47.76;101890.00;4420713;32;20124;-71
2021/12/18 11:02:41;;;;;;;6.20;3.33;;;;;;;9.81;48.22;101879.31;4420817;32;20157;-71
2021/12/18 11:05:17;;;;;;;6.20;3.25;;;;;;;10.75;45.15;101877.09;4420845;32;20081;-71
2021/12/18 11:07:46;;;;;;;7.12;2.75;;;;;;;10.68;45.21;101863.81;4420386;32;20145;-71
2021/12/18 11:10:39;;;;;;;8.43;3.35;;;;;;;11.07;44.66;101873.91;4420043;32;20086;-71
2021/12/18 11:15:56;;;;;;;3.67;2.92;;;;;;;11.68;42.36;101877.06;4420569;32;20422;-71
2021/12/18 11:18:24;;;;;;;6.45;3.42;;;;;;;10.94;43.47;101859.69;4420505;32;20081;-71
2021/12/18 11:20:52;;;;;;;5.65;2.58;;;;;;;11.25;44.04;101857.34;4420487;32;20156;-71
2021/12/18 11:23:36;;;;;;;6.35;3.20;;;;;;;11.91;42.27;101845.56;4420709;32;20472;-71
2021/12/18 11:26:04;;;;;;;9.05;3.10;;;;;;;12.41;40.67;101847.56;4420379;32;20124;-71
2021/12/18 11:28:31;;;;;;;5.32;2.58;;;;;;;12.16;43.66;101853.63;4420170;32;20467;-71
2021/12/18 11:31:02;;;;;;;6.82;2.05;;;;;;;12.83;39.63;101853.87;4420425;32;20120;-71
2021/12/18 11:33:31;;;;;;;8.52;2.47;;;;;;;14.01;37.44;101853.00;4420420;32;20370;-71
2021/12/18 11:36:03;;;;;;;4.93;2.55;;;;;;;14.04;36.75;101847.72;4420176;32;20082;-71
2021/12/18 11:38:34;;;;;;;4.20;2.87;;;;;;;13.49;38.80;101831.91;4420346;32;20089;-71
2021/12/18 11:41:01;;;;;;;4.50;2.55;;;;;;;13.83;37.77;101827.44;4420224;32;20128;-71
2021/12/18 11:43:28;;;;;;;5.68;2.60;;;;;;;13.24;38.03;101837.19;4420342;32;20097;-71
2021/12/18 11:45:57;;;;;;;3.58;2.30;;;;;;;13.28;38.02;101833.66;4420210;32;20438;-71
2021/12/18 11:48:24;;;;;;;6.72;3.65;;;;;;;12.23;41.42;101821.06;4420226;32;20117;-71
2021/12/18 11:50:51;;;;;;;6.15;2.58;;;;;;;12.55;40.46;101820.31;4420371;32;20120;-71
2021/12/18 11:53:30;;;;;;;6.07;2.53;;;;;;;11.35;41.98;101830.19;4420336;32;20180;-71
2021/12/18 11:56:00;;;;;;;6.10;2.30;;;;;;;10.02;44.58;101831.34;4420429;32;20130;-71
2021/12/18 11:58:35;;;;;;;4.78;2.10;;;;;;;8.99;47.65;101832.34;4420508;32;20153;-71
2021/12/18 12:01:33;;;;;;;5.32;2.83;;;;;;;8.64;49.08;101825.56;4420155;32;20093;-71
2021/12/18 12:04:01;;;;;;;;;;;;;;;8.28;50.09;101839.72;4407250;32;20237;-71
2021/12/18 12:06:30;;;;;;;6.47;2.72;;;;;;;8.17;51.09;101833.34;4420114;32;20400;-71
2021/12/18 12:09:37;;;;;;;5.50;2.67;;;;;;;8.28;50.76;101813.44;4420163;32;20094;-71
2021/12/18 12:12:07;;;;;;;3.97;2.53;;;;;;;7.81;51.23;101810.69;4420218;32;20118;-71
2021/12/18 12:14:39;;;;;;;5.45;2.72;;;;;;;8.38;51.78;101807.56;4419905;32;20559;-71
2021/12/18 12:17:11;;;;;;;9.85;3.12;;;;;;;8.86;49.48;101810.22;4420039;32;20073;-71
2021/12/18 12:19:42;;;;;;;10.48;3.37;;;;;;;8.86;49.10;101811.97;4420038;32;20077;-71
2021/12/18 12:22:29;;;;;;;5.07;2.67;;;;;;;8.91;49.68;101820.84;4422263;32;20094;-71
2021/12/18 12:24:59;;;;;;;5.75;2.70;;;;;;;8.66;50.23;101818.59;4422195;32;20120;-71
2021/12/18 12:27:30;;;;;;;7.00;3.22;;;;;;;8.09;51.44;101818.31;4421886;32;20077;-70
2021/12/18 12:30:00;;;;;;;4.70;2.90;;;;;;;8.20;51.66;101810.69;4422204;32;20115;-71